Hovedside
METAR-TAF:

METAR-TAF

Lufthavner :

Billund, Danmark

Billund lufthavn

breddegrad: 55-44N, lengdegrad: 009-10E, høyde over havet: 75 m

Gjeldene værobservasjon

Denne rapporten ble laget for 24 minutter siden, klokken 05:50 UTC
Flau vind
Temperatur -4°C
Luftfuktighet 100%
Trykk 1031 hPa
Sikt 10 km eller mer
Grunne tåke

METAR: EKBI 240550Z 00000KT 9999 MIFG NSC M04/M04 Q1031

Tid: 07:14 (06:14 UTC)

Varsel

Denne rapporten ble laget for 1 time og 20 minutter siden, klokken 04:54 UTC
Varsel gyldig fra 24. klokken 06 UTC til 25. klokken 06 UTC
Vind 8 kt fra Nordvest
Sikt 10 km eller mer
Få skyer i en høyde av 3000 ft
Midlertidig
fra 24. klokken 06 UTC til 24. klokken 07 UTC
Sikt: 0800 m
underkjølt tåke, tåkebanker

TAF: EKBI 240454Z 2406/2506 32008KT 9999 FEW030 TEMPO 2406/2407 0800 FZFG BCFG

Værobservasjoner og værvarsel for over 4000 flyplasser (METAR- og TAF-rapporter).

Tilgjengelige stasjoner er representert av de røde og gule prikkene på kartet.

Hold musepekeren over prikken for å se navnet på stasjonen.

Klikk så for å se værobservasjoner og -varsler.

For å forandre kartet kan du klikke på den grønne knappen med svart kryss for å zoome inn, på den grønne knappen med strek for å zoome ut, eller på de grønne pilene for å se tilstøtende kart.


METAR-TAF: